Time;durP1;ratioP1;P1;durP2;ratioP2;P2;SDS_P1;SDS_P2;PMS_P1;PMS_P2;Temp;Humidity;BMP_temperature;BMP_pressure;BME280_temperature;BME280_humidity;BME280_pressure;Samples;Min_cycle;Max_cycle;Signal;HPM_P1;HPM_P2
2022/03/26 00:01:04;;;;;;;6.13;3.00;;;;;;;8.83;53.72;101905.28;2077500;28;20119;-85
2022/03/26 00:02:28;;;;;;;7.97;3.80;;;;;;;8.87;53.35;101905.47;2081792;28;20112;-85
2022/03/26 00:03:50;;;;;;;7.65;4.70;;;;;;;8.88;52.93;101903.75;2066400;28;20046;-84
2022/03/26 00:05:12;;;;;;;8.13;5.25;;;;;;;8.90;52.94;101894.19;2077493;28;20033;-85
2022/03/26 00:06:36;;;;;;;9.57;3.28;;;;;;;8.91;52.95;101894.25;2077713;28;20045;-85
2022/03/26 00:07:57;;;;;;;6.53;4.07;;;;;;;8.94;52.64;101893.47;2072451;28;20104;-84
2022/03/26 00:09:20;;;;;;;6.35;2.70;;;;;;;8.95;52.66;101897.88;2067600;28;20093;-83
2022/03/26 00:10:45;;;;;;;8.25;3.70;;;;;;;8.96;52.43;101883.91;2080395;28;20041;-84
2022/03/26 00:12:10;;;;;;;8.20;3.78;;;;;;;8.94;52.46;101890.81;2075046;28;20081;-85
2022/03/26 00:13:32;;;;;;;7.90;3.58;;;;;;;8.87;52.41;101894.03;2071929;28;20061;-85
2022/03/26 00:14:54;;;;;;;8.95;4.60;;;;;;;8.84;52.80;101893.94;2081809;28;20045;-84
2022/03/26 00:16:16;;;;;;;8.80;4.40;;;;;;;8.84;52.78;101891.31;2071957;28;20046;-85
2022/03/26 00:17:38;;;;;;;6.25;3.03;;;;;;;8.85;52.95;101895.75;2067413;28;20042;-84
2022/03/26 00:19:00;;;;;;;9.02;3.65;;;;;;;8.78;53.02;101878.78;2075847;28;20057;-85
2022/03/26 00:20:26;;;;;;;8.13;3.90;;;;;;;8.73;53.15;101883.84;2072379;28;20066;-85
2022/03/26 00:21:49;;;;;;;2.67;1.38;;;;;;;8.73;52.88;101875.94;2072153;28;20196;-84
2022/03/26 00:23:12;;;;;;;3.80;1.58;;;;;;;8.76;52.66;101872.56;2079094;28;20045;-84
2022/03/26 00:24:34;;;;;;;8.07;2.50;;;;;;;8.80;52.49;101879.72;2068413;28;20050;-85
2022/03/26 00:25:59;;;;;;;5.50;1.73;;;;;;;8.86;52.18;101877.34;2067820;28;20120;-85
2022/03/26 00:27:21;;;;;;;9.88;4.75;;;;;;;8.89;52.06;101882.75;2062365;28;20043;-85
2022/03/26 00:28:43;;;;;;;7.43;3.33;;;;;;;8.84;51.88;101875.50;2069061;28;20073;-86
2022/03/26 00:30:07;;;;;;;9.02;3.35;;;;;;;8.72;51.61;101874.19;2065384;28;20050;-84
2022/03/26 00:31:33;;;;;;;5.72;2.45;;;;;;;8.66;51.76;101883.56;2073462;28;20107;-85
2022/03/26 00:32:54;;;;;;;5.40;2.45;;;;;;;8.64;52.05;101880.84;2083171;28;20038;-85
2022/03/26 00:34:18;;;;;;;6.28;2.05;;;;;;;8.64;51.76;101878.22;2080264;28;20623;-84
2022/03/26 00:35:40;;;;;;;5.80;2.22;;;;;;;8.56;52.12;101871.75;2081959;28;20045;-85
2022/03/26 00:37:02;;;;;;;6.38;3.05;;;;;;;8.53;52.25;101871.63;2081665;28;20065;-84
2022/03/26 00:38:26;;;;;;;9.40;3.97;;;;;;;8.56;52.18;101877.00;2067424;28;20506;-85
2022/03/26 00:39:47;;;;;;;5.38;2.65;;;;;;;8.61;52.15;101874.56;2080895;28;20049;-84
2022/03/26 00:41:11;;;;;;;5.60;1.95;;;;;;;8.64;52.19;101870.34;2071014;28;20046;-84
2022/03/26 00:42:34;;;;;;;8.73;2.40;;;;;;;8.65;52.07;101876.50;2078248;28;20126;-85
2022/03/26 00:43:57;;;;;;;5.53;2.10;;;;;;;8.67;52.08;101875.69;2082319;28;20045;-85
2022/03/26 00:45:20;;;;;;;8.32;2.55;;;;;;;8.69;51.85;101879.31;2081730;28;20525;-85
2022/03/26 00:46:41;;;;;;;7.53;2.42;;;;;;;8.68;52.01;101882.78;2088617;28;20045;-85
2022/03/26 00:48:04;;;;;;;7.75;4.53;;;;;;;8.60;52.07;101880.69;2076236;28;20165;-85
2022/03/26 00:49:26;;;;;;;5.97;3.10;;;;;;;8.54;52.22;101878.66;2080966;28;20041;-85
2022/03/26 00:50:48;;;;;;;6.72;2.92;;;;;;;8.56;52.36;101879.63;2076248;28;20060;-84
2022/03/26 00:52:09;;;;;;;9.65;3.85;;;;;;;8.59;52.17;101885.03;2071838;28;20612;-86
2022/03/26 00:53:34;;;;;;;9.80;3.72;;;;;;;8.60;51.93;101878.91;2069529;28;20064;-85
2022/03/26 00:54:58;;;;;;;5.72;3.35;;;;;;;8.58;51.85;101877.06;2076577;28;20057;-85
2022/03/26 00:56:22;;;;;;;10.73;3.75;;;;;;;8.59;51.80;101882.41;2081576;28;20091;-85
2022/03/26 00:57:45;;;;;;;4.03;1.65;;;;;;;8.63;51.45;101876.44;2080310;28;21292;-87
2022/03/26 00:59:08;;;;;;;6.13;2.78;;;;;;;8.73;50.77;101881.22;2074372;28;20456;-85
2022/03/26 01:00:31;;;;;;;5.15;2.55;;;;;;;8.79;50.54;101883.22;2071521;28;20557;-85
2022/03/26 01:01:52;;;;;;;3.70;2.33;;;;;;;8.82;50.39;101882.44;2072363;28;20442;-86
2022/03/26 01:03:17;;;;;;;2.70;1.88;;;;;;;8.83;49.94;101881.59;2081045;28;20059;-86
2022/03/26 01:04:40;;;;;;;8.65;2.92;;;;;;;8.82;49.99;101880.69;2067957;28;20088;-86
2022/03/26 01:06:03;;;;;;;5.95;2.85;;;;;;;8.74;50.17;101877.75;2078343;28;20159;-86
2022/03/26 01:07:26;;;;;;;5.22;1.95;;;;;;;8.64;50.28;101880.84;2072588;28;20557;-85
2022/03/26 01:08:49;;;;;;;5.53;2.17;;;;;;;8.60;50.64;101884.19;2080132;28;20108;-85
2022/03/26 01:10:13;;;;;;;8.07;4.30;;;;;;;8.55;50.38;101874.31;2064698;28;20142;-85
2022/03/26 01:11:38;;;;;;;6.07;2.80;;;;;;;8.51;50.19;101889.06;2084827;28;20103;-84
2022/03/26 01:13:03;;;;;;;4.28;1.60;;;;;;;8.48;49.98;101885.41;2059504;28;20137;-84
2022/03/26 01:14:26;;;;;;;56.28;18.17;;;;;;;8.42;50.00;101880.78;2081169;28;20045;-84
2022/03/26 01:15:47;;;;;;;29.23;11.57;;;;;;;8.39;50.22;101881.56;2074497;28;20074;-84
2022/03/26 01:17:10;;;;;;;13.15;5.50;;;;;;;8.42;50.24;101886.03;2070877;28;20129;-84
2022/03/26 01:18:32;;;;;;;7.68;3.33;;;;;;;8.47;50.06;101887.13;2082504;28;20103;-86
2022/03/26 01:19:54;;;;;;;6.88;2.72;;;;;;;8.51;49.78;101882.91;2072783;28;20127;-85
2022/03/26 01:21:16;;;;;;;10.43;3.83;;;;;;;8.55;49.60;101879.56;2076817;28;20045;-85
2022/03/26 01:22:39;;;;;;;6.10;2.75;;;;;;;8.50;49.67;101882.00;2075302;28;20056;-85
2022/03/26 01:24:02;;;;;;;8.57;4.53;;;;;;;8.43;49.84;101882.59;2075959;28;20068;-85
2022/03/26 01:25:24;;;;;;;8.70;1.80;;;;;;;8.37;50.10;101887.59;2062922;28;20144;-85
2022/03/26 01:26:52;;;;;;;3.30;1.65;;;;;;;8.49;49.69;101888.09;2073395;28;20495;-85
2022/03/26 01:28:15;;;;;;;2.05;1.15;;;;;;;8.60;48.90;101894.72;2083428;28;20045;-85
2022/03/26 01:29:40;;;;;;;1.83;0.95;;;;;;;8.76;47.54;101891.88;2075232;28;20081;-85
2022/03/26 01:31:04;;;;;;;4.28;1.75;;;;;;;8.92;47.36;101882.00;2056703;28;20102;-84
2022/03/26 01:32:27;;;;;;;3.92;2.30;;;;;;;8.94;47.65;101886.47;2078788;28;20049;-85
2022/03/26 01:33:51;;;;;;;4.50;1.80;;;;;;;8.94;47.73;101885.56;2084445;28;20159;-84
2022/03/26 01:35:15;;;;;;;3.95;1.50;;;;;;;8.87;47.51;101889.69;2083865;28;20083;-84
2022/03/26 01:36:38;;;;;;;3.00;1.67;;;;;;;8.78;47.79;101892.84;2072247;28;20090;-85
2022/03/26 01:38:01;;;;;;;2.20;1.40;;;;;;;8.74;47.92;101884.75;2088327;28;20056;-85
2022/03/26 01:39:23;;;;;;;1.95;1.13;;;;;;;8.68;48.32;101887.13;2073704;28;20041;-85
2022/03/26 01:40:46;;;;;;;2.88;1.50;;;;;;;8.65;48.23;101893.19;2074559;28;20045;-84
2022/03/26 01:42:11;;;;;;;1.75;1.23;;;;;;;8.61;48.55;101888.63;2074434;28;20042;-86
2022/03/26 01:43:33;;;;;;;2.25;1.15;;;;;;;8.60;48.54;101889.44;2064856;28;20046;-85
2022/03/26 01:44:56;;;;;;;1.58;1.05;;;;;;;8.50;48.38;101897.81;2085362;28;20071;-84
2022/03/26 01:46:20;;;;;;;3.30;1.40;;;;;;;8.35;48.58;101895.41;2083780;28;20046;-84
2022/03/26 01:47:41;;;;;;;2.88;1.92;;;;;;;8.24;48.96;101894.03;2078956;28;20073;-84
2022/03/26 01:49:04;;;;;;;8.63;4.53;;;;;;;8.20;49.03;101891.22;2084649;28;20144;-84
2022/03/26 01:50:29;;;;;;;10.55;5.10;;;;;;;8.19;49.02;101890.31;2067676;28;20066;-85
2022/03/26 01:51:52;;;;;;;11.18;6.97;;;;;;;8.24;49.03;101895.75;2065798;28;20062;-85
2022/03/26 01:53:14;;;;;;;19.25;9.88;;;;;;;8.31;48.65;101900.50;2081225;28;20045;-85
2022/03/26 01:54:37;;;;;;;8.00;4.07;;;;;;;8.33;48.71;101898.84;2081636;28;20059;-84
2022/03/26 01:56:00;;;;;;;6.63;2.67;;;;;;;8.19;48.73;101903.47;2081021;28;20587;-84
2022/03/26 01:57:28;;;;;;;5.97;4.15;;;;;;;8.05;49.28;101907.22;2075479;28;20088;-85
2022/03/26 01:58:49;;;;;;;15.52;13.80;;;;;;;7.88;49.67;101909.06;2063663;28;20046;-84
2022/03/26 02:00:13;;;;;;;38.42;29.08;;;;;;;7.85;49.70;101905.44;2085234;28;20148;-84
2022/03/26 02:01:37;;;;;;;8.02;6.05;;;;;;;7.91;49.87;101908.31;2075048;28;20050;-84
2022/03/26 02:02:58;;;;;;;5.68;4.05;;;;;;;8.00;49.65;101903.50;2077271;28;20046;-85
2022/03/26 02:04:22;;;;;;;8.10;5.10;;;;;;;8.10;49.21;101904.78;2074415;28;20517;-85
2022/03/26 02:05:45;;;;;;;7.18;3.90;;;;;;;8.14;49.06;101902.34;2078178;28;20060;-85
2022/03/26 02:07:07;;;;;;;8.45;6.50;;;;;;;8.16;48.91;101899.78;2081041;28;20049;-83
2022/03/26 02:08:29;;;;;;;8.43;7.07;;;;;;;8.19;48.68;101900.84;2088439;28;20068;-85
2022/03/26 02:09:51;;;;;;;7.57;5.90;;;;;;;8.23;48.48;101900.13;2077990;28;20442;-85
2022/03/26 02:11:15;;;;;;;4.40;2.20;;;;;;;8.28;48.41;101895.94;2081070;28;20061;-84
2022/03/26 02:12:39;;;;;;;6.45;3.83;;;;;;;8.35;48.27;101902.41;2085157;28;20102;-85
2022/03/26 02:14:03;;;;;;;4.32;3.75;;;;;;;8.35;47.86;101907.66;2074874;28;20042;-83
2022/03/26 02:15:25;;;;;;;7.20;4.78;;;;;;;8.23;48.20;101908.00;2073000;28;20095;-85
2022/03/26 02:16:48;;;;;;;5.18;3.75;;;;;;;8.15;48.10;101897.97;2056639;28;20074;-84
2022/03/26 02:18:10;;;;;;;3.13;1.65;;;;;;;8.17;48.25;101897.22;2076423;28;20068;-85
2022/03/26 02:19:32;;;;;;;;;;;;;;;8.21;48.32;101906.13;2078029;28;20054;-86
2022/03/26 02:20:56;;;;;;;2.88;1.42;;;;;;;8.26;48.14;101908.16;2075474;28;19979;-86
2022/03/26 02:22:20;;;;;;;2.22;1.27;;;;;;;8.25;47.93;101915.97;2074949;28;20112;-86
2022/03/26 02:23:44;;;;;;;3.05;1.75;;;;;;;8.15;48.14;101912.03;2089246;28;20132;-86
2022/03/26 02:25:09;;;;;;;5.75;2.60;;;;;;;8.10;48.17;101910.03;2072247;28;20054;-86
2022/03/26 02:26:32;;;;;;;4.85;2.25;;;;;;;8.10;48.25;101915.28;2078661;28;20075;-87
2022/03/26 02:27:57;;;;;;;4.93;1.35;;;;;;;8.17;48.24;101913.00;2071552;28;20052;-86
2022/03/26 02:29:20;;;;;;;2.65;1.13;;;;;;;8.25;47.84;101910.72;2067208;28;20041;-87
2022/03/26 02:30:43;;;;;;;5.50;1.27;;;;;;;8.29;47.52;101910.91;2070582;28;20076;-86
2022/03/26 02:32:08;;;;;;;2.25;1.08;;;;;;;8.24;47.57;101917.72;2069253;28;20124;-87
2022/03/26 02:33:30;;;;;;;3.88;2.05;;;;;;;8.15;47.83;101916.38;2070145;28;20050;-87
2022/03/26 02:34:54;;;;;;;4.65;2.50;;;;;;;8.13;48.03;101920.72;2074675;28;20061;-87
2022/03/26 02:36:17;;;;;;;2.88;1.40;;;;;;;8.17;47.81;101915.63;2064681;28;20050;-87
2022/03/26 02:37:40;;;;;;;6.40;1.88;;;;;;;8.21;47.89;101925.44;2079929;28;20033;-87
2022/03/26 02:39:05;;;;;;;4.47;1.63;;;;;;;8.14;47.77;101931.28;2058983;28;20051;-88
2022/03/26 02:40:28;;;;;;;2.13;0.77;;;;;;;8.04;48.20;101933.44;2082919;28;20040;-87
2022/03/26 02:41:51;;;;;;;1.05;0.70;;;;;;;7.95;48.43;101932.19;2076886;28;20537;-86
2022/03/26 02:43:12;;;;;;;2.63;1.40;;;;;;;7.95;48.48;101933.91;2075206;28;20133;-86
2022/03/26 02:44:35;;;;;;;3.45;1.50;;;;;;;7.91;48.65;101935.53;2077152;28;20485;-86
2022/03/26 02:45:58;;;;;;;4.93;2.10;;;;;;;7.95;48.53;101937.44;2076253;28;20386;-84
2022/03/26 02:47:21;;;;;;;2.63;1.10;;;;;;;8.06;48.33;101937.94;2072433;28;20057;-87
2022/03/26 02:48:44;;;;;;;3.42;1.50;;;;;;;8.18;47.79;101937.59;2085596;28;20034;-86
2022/03/26 02:50:09;;;;;;;3.28;1.50;;;;;;;8.27;47.64;101935.38;2082156;28;20060;-86
2022/03/26 02:51:36;;;;;;;4.78;1.75;;;;;;;8.32;47.48;101939.13;2066674;28;20043;-87
2022/03/26 02:52:59;;;;;;;3.72;1.63;;;;;;;8.31;47.56;101945.22;2068250;28;20521;-86
2022/03/26 02:54:23;;;;;;;4.53;1.40;;;;;;;8.23;47.55;101944.84;2068737;28;20053;-86
2022/03/26 02:55:47;;;;;;;3.22;1.42;;;;;;;8.19;48.07;101942.91;2073863;28;20051;-86
2022/03/26 02:57:09;;;;;;;3.55;1.40;;;;;;;8.16;48.21;101947.13;2058759;28;20190;-86
2022/03/26 02:58:33;;;;;;;4.22;1.35;;;;;;;8.14;48.20;101954.06;2084124;28;20638;-86
2022/03/26 02:59:54;;;;;;;3.67;1.40;;;;;;;8.12;48.21;101958.34;2072117;28;20080;-84
2022/03/26 03:01:19;;;;;;;2.45;1.23;;;;;;;8.14;48.25;101956.69;2068288;28;20050;-86
2022/03/26 03:02:40;;;;;;;6.03;1.80;;;;;;;8.16;47.94;101955.00;2073869;28;20050;-87
2022/03/26 03:04:03;;;;;;;6.65;2.75;;;;;;;8.16;47.92;101960.28;2080680;28;20050;-87
2022/03/26 03:05:26;;;;;;;4.45;1.60;;;;;;;8.19;48.19;101961.31;2078935;28;20053;-87
2022/03/26 03:06:51;;;;;;;5.22;1.95;;;;;;;8.24;48.01;101966.78;2074801;28;20134;-86
2022/03/26 03:08:16;;;;;;;6.07;3.20;;;;;;;8.23;47.88;101964.97;2085133;28;20045;-85
2022/03/26 03:09:39;;;;;;;3.25;1.35;;;;;;;8.21;47.83;101967.53;2082977;28;20049;-86
2022/03/26 03:11:02;;;;;;;2.55;1.33;;;;;;;8.17;47.92;101976.13;2064243;28;20054;-86
2022/03/26 03:12:27;;;;;;;4.90;1.88;;;;;;;8.15;48.28;101974.25;2078149;28;20107;-86
2022/03/26 03:13:49;;;;;;;4.47;1.83;;;;;;;8.14;48.44;101977.75;2064186;28;20081;-86
2022/03/26 03:15:11;;;;;;;3.88;1.60;;;;;;;8.10;48.36;101975.78;2066604;28;20044;-86
2022/03/26 03:16:36;;;;;;;5.53;2.20;;;;;;;8.04;48.57;101970.25;2074219;28;20030;-86
2022/03/26 03:17:59;;;;;;;10.20;5.20;;;;;;;8.03;48.83;101969.34;2070051;28;20096;-87
2022/03/26 03:19:22;;;;;;;8.63;4.88;;;;;;;8.06;48.92;101972.13;2067084;28;20054;-86
2022/03/26 03:20:44;;;;;;;7.70;3.15;;;;;;;8.09;48.74;101972.25;2078122;28;20532;-86
2022/03/26 03:22:09;;;;;;;7.38;3.33;;;;;;;8.11;48.66;101974.97;2066784;28;20050;-87
2022/03/26 03:23:30;;;;;;;6.32;2.60;;;;;;;8.00;49.00;101977.13;2065301;28;20591;-86
2022/03/26 03:24:55;;;;;;;10.88;4.45;;;;;;;7.88;49.13;101982.69;2069892;28;20072;-87
2022/03/26 03:26:19;;;;;;;6.93;3.75;;;;;;;7.82;49.38;101982.41;2066249;28;20042;-87
2022/03/26 03:27:47;;;;;;;9.05;4.03;;;;;;;7.82;49.50;101986.75;2078513;28;20061;-87
2022/03/26 03:29:11;;;;;;;12.30;5.95;;;;;;;7.85;49.69;101986.91;2083782;28;20041;-87
2022/03/26 03:30:35;;;;;;;14.38;7.18;;;;;;;7.84;49.82;101982.47;2081168;28;20045;-87
2022/03/26 03:31:58;;;;;;;11.27;7.10;;;;;;;7.86;49.90;101979.09;2078271;28;20038;-87
2022/03/26 03:33:20;;;;;;;10.13;5.57;;;;;;;7.91;49.74;101992.47;2072228;28;20082;-87
2022/03/26 03:34:43;;;;;;;11.25;6.07;;;;;;;7.90;49.68;101991.56;2058802;28;20082;-87
2022/03/26 03:36:07;;;;;;;11.90;5.55;;;;;;;7.92;49.75;101997.78;2076214;28;20406;-85
2022/03/26 03:37:33;;;;;;;9.07;4.72;;;;;;;7.95;49.95;101994.38;2074751;28;20044;-86
2022/03/26 03:38:56;;;;;;;10.50;4.07;;;;;;;7.95;50.13;101997.91;2070653;28;20053;-87
2022/03/26 03:40:19;;;;;;;8.35;3.70;;;;;;;7.92;50.18;101994.25;2069922;28;20053;-86
2022/03/26 03:41:43;;;;;;;6.43;3.17;;;;;;;7.84;50.19;101996.53;2075997;28;20050;-86
2022/03/26 03:43:08;;;;;;;9.05;4.13;;;;;;;7.81;50.48;101991.13;2066853;28;20042;-88
2022/03/26 03:44:30;;;;;;;9.80;4.10;;;;;;;7.83;50.34;101997.34;2073799;28;20057;-88
2022/03/26 03:45:53;;;;;;;10.70;5.00;;;;;;;7.85;50.28;101995.72;2072910;28;20053;-88
2022/03/26 03:47:17;;;;;;;7.97;3.63;;;;;;;7.83;50.34;101993.81;2075243;28;20666;-88
2022/03/26 03:48:41;;;;;;;6.53;3.97;;;;;;;7.77;50.33;101997.06;2080385;28;20398;-87
2022/03/26 03:50:06;;;;;;;10.30;4.22;;;;;;;7.75;50.74;102001.34;2074851;28;20073;-88
2022/03/26 03:51:29;;;;;;;19.27;10.13;;;;;;;7.73;50.69;101996.88;2074430;28;20050;-89
2022/03/26 03:52:53;;;;;;;15.60;9.57;;;;;;;7.75;50.89;102006.59;2066646;28;20046;-88
2022/03/26 03:54:16;;;;;;;14.48;11.68;;;;;;;7.77;50.75;101998.78;2083623;28;20076;-88
2022/03/26 03:55:38;;;;;;;19.40;16.23;;;;;;;7.80;50.85;102004.22;2086654;28;20602;-88
2022/03/26 03:57:01;;;;;;;17.17;12.88;;;;;;;7.84;50.62;102001.78;2074332;28;20132;-87
2022/03/26 03:58:23;;;;;;;9.18;4.65;;;;;;;7.86;50.63;102001.88;2050570;28;20063;-89
2022/03/26 03:59:46;;;;;;;9.63;3.80;;;;;;;7.83;50.62;102013.13;2071969;28;20037;-87
2022/03/26 04:01:09;;;;;;;7.95;3.50;;;;;;;7.80;50.94;102010.38;2072024;28;20050;-86
2022/03/26 04:02:33;;;;;;;8.05;3.80;;;;;;;7.79;51.13;102013.81;2075346;28;20099;-85
2022/03/26 04:03:55;;;;;;;4.97;2.83;;;;;;;7.78;51.17;102009.38;2059125;28;20104;-86
2022/03/26 04:05:21;;;;;;;6.13;2.67;;;;;;;7.80;51.10;102013.00;2079050;28;20125;-85
2022/03/26 04:06:44;;;;;;;7.18;2.80;;;;;;;7.78;51.23;102016.38;2074869;28;20091;-86
2022/03/26 04:08:08;;;;;;;5.88;2.90;;;;;;;7.78;51.22;102027.78;2079163;28;20046;-86
2022/03/26 04:09:31;;;;;;;9.43;3.00;;;;;;;7.77;51.08;102025.09;2081799;28;20103;-86
2022/03/26 04:10:54;;;;;;;8.63;3.47;;;;;;;7.78;51.20;102034.78;2087812;28;20072;-86
2022/03/26 04:12:17;;;;;;;11.48;4.85;;;;;;;7.77;51.21;102031.25;2072338;28;20042;-86
2022/03/26 04:13:40;;;;;;;12.27;5.57;;;;;;;7.76;51.62;102037.31;2070511;28;20050;-86
2022/03/26 04:15:03;;;;;;;11.73;6.10;;;;;;;7.77;52.00;102032.97;2080976;28;20091;-87
2022/03/26 04:16:27;;;;;;;9.65;4.03;;;;;;;7.77;52.05;102033.88;2076712;28;20484;-86
2022/03/26 04:17:52;;;;;;;6.93;3.72;;;;;;;7.79;52.20;102039.22;2088936;28;20164;-85
2022/03/26 04:19:14;;;;;;;8.63;3.75;;;;;;;7.80;52.30;102041.91;2084319;28;20053;-86
2022/03/26 04:20:39;;;;;;;7.63;3.75;;;;;;;7.82;52.50;102037.59;2073566;28;20037;-86
2022/03/26 04:22:01;;;;;;;6.47;3.38;;;;;;;7.81;52.49;102035.81;2078696;28;20196;-86
2022/03/26 04:23:26;;;;;;;8.02;3.42;;;;;;;7.83;52.53;102036.78;2072341;28;20064;-85
2022/03/26 04:24:49;;;;;;;10.70;4.85;;;;;;;7.81;52.50;102030.53;2086671;28;20057;-86
2022/03/26 04:26:11;;;;;;;8.50;3.63;;;;;;;7.80;52.66;102038.38;2070188;28;20112;-86
2022/03/26 04:27:33;;;;;;;9.18;3.83;;;;;;;7.74;53.18;102038.09;2080100;28;20519;-86
2022/03/26 04:28:55;;;;;;;;;;;;;;;7.72;53.13;102042.38;2085160;28;20069;-86
2022/03/26 04:30:18;;;;;;;14.70;6.30;;;;;;;7.68;53.46;102035.19;2076168;28;19921;-86
2022/03/26 04:31:41;;;;;;;14.27;6.15;;;;;;;7.66;53.59;102035.09;2068242;28;20046;-85
2022/03/26 04:33:04;;;;;;;13.85;6.05;;;;;;;7.70;53.81;102042.28;2085361;28;20041;-85
2022/03/26 04:34:27;;;;;;;9.18;4.43;;;;;;;7.77;53.88;102040.84;2084147;28;20061;-86
2022/03/26 04:35:50;;;;;;;10.63;5.43;;;;;;;7.88;53.87;102040.53;2076000;28;20120;-86
2022/03/26 04:37:12;;;;;;;6.20;4.00;;;;;;;8.01;53.78;102042.91;2082473;28;20046;-86
2022/03/26 04:38:37;;;;;;;12.43;5.90;;;;;;;8.15;53.85;102042.63;2080960;28;20080;-87
2022/03/26 04:39:58;;;;;;;11.45;4.88;;;;;;;8.26;53.78;102042.31;2073464;28;20049;-85
2022/03/26 04:41:21;;;;;;;12.07;4.53;;;;;;;8.40;53.63;102043.84;2077711;28;20041;-86
2022/03/26 04:42:50;;;;;;;13.95;5.40;;;;;;;8.54;53.48;102040.94;2078845;28;20037;-84
2022/03/26 04:44:12;;;;;;;14.15;4.82;;;;;;;8.63;53.50;102043.97;2067109;28;20077;-86
2022/03/26 04:45:34;;;;;;;13.10;5.25;;;;;;;8.76;53.19;102038.41;2073234;28;20065;-86
2022/03/26 04:46:59;;;;;;;12.88;4.30;;;;;;;8.90;53.08;102041.66;2078155;28;20060;-86
2022/03/26 04:48:25;;;;;;;13.10;4.13;;;;;;;9.06;52.99;102038.81;2081615;28;20045;-86
2022/03/26 04:49:51;;;;;;;10.60;3.30;;;;;;;9.17;53.02;102035.81;2075580;28;20073;-86
2022/03/26 04:51:18;;;;;;;7.57;3.17;;;;;;;9.30;53.03;102038.94;2071516;28;20041;-87
2022/03/26 04:52:42;;;;;;;11.02;3.88;;;;;;;9.39;53.06;102034.03;2076205;28;20054;-86
2022/03/26 04:54:07;;;;;;;8.43;2.90;;;;;;;9.51;53.04;102037.19;2072777;28;20038;-86
2022/03/26 04:55:30;;;;;;;9.52;4.10;;;;;;;9.65;53.11;102032.47;2081537;28;20597;-87
2022/03/26 04:56:53;;;;;;;5.72;2.90;;;;;;;9.79;52.98;102040.06;2076965;28;20057;-87
2022/03/26 04:58:16;;;;;;;6.05;3.00;;;;;;;9.93;52.92;102043.25;2073203;28;20093;-87
2022/03/26 04:59:38;;;;;;;7.78;3.28;;;;;;;10.07;52.81;102042.03;2082950;28;20107;-87
2022/03/26 05:01:00;;;;;;;6.57;3.00;;;;;;;10.16;52.60;102044.13;2069794;28;20058;-87
2022/03/26 05:02:23;;;;;;;;;;;;;;;10.25;52.56;102045.41;2083854;28;20041;-86
2022/03/26 05:03:46;;;;;;;;;;;;;;;10.36;52.48;102040.53;2076464;28;20327;-87
2022/03/26 05:05:11;;;;;;;9.40;4.45;;;;;;;10.48;52.43;102045.34;2085079;28;20359;-87
2022/03/26 05:06:34;;;;;;;8.07;3.95;;;;;;;10.61;52.56;102044.97;2067229;28;20049;-87
2022/03/26 05:07:59;;;;;;;6.68;3.20;;;;;;;10.72;52.46;102033.03;2083239;28;20045;-87
2022/03/26 05:09:25;;;;;;;7.05;3.50;;;;;;;10.84;52.09;102033.47;2063498;28;20049;-87
2022/03/26 05:10:48;;;;;;;8.85;3.13;;;;;;;10.95;51.99;102039.13;2082948;28;20138;-87
2022/03/26 05:12:10;;;;;;;10.48;4.18;;;;;;;11.08;51.59;102046.63;2075748;28;20092;-88
2022/03/26 05:13:33;;;;;;;7.75;3.13;;;;;;;11.14;51.48;102039.81;2079428;28;20045;-87
2022/03/26 05:14:55;;;;;;;5.40;1.88;;;;;;;11.14;51.34;102045.09;2080641;28;20052;-88
2022/03/26 05:16:18;;;;;;;3.97;2.08;;;;;;;11.18;51.49;102046.97;2067201;28;20109;-87
2022/03/26 05:17:40;;;;;;;4.38;2.35;;;;;;;11.35;51.50;102042.28;2084885;28;20127;-87
2022/03/26 05:19:03;;;;;;;5.40;2.20;;;;;;;11.57;51.21;102050.03;2075473;28;20052;-88
2022/03/26 05:20:26;;;;;;;3.70;1.92;;;;;;;11.79;51.03;102056.94;2086877;28;20084;-88
2022/03/26 05:21:49;;;;;;;2.92;2.10;;;;;;;11.97;50.64;102043.38;2077935;28;20132;-87
2022/03/26 05:23:13;;;;;;;5.05;2.42;;;;;;;12.19;50.45;102047.59;2079320;28;20057;-87
2022/03/26 05:24:36;;;;;;;6.63;1.90;;;;;;;12.37;50.03;102042.81;2074219;28;20046;-85
2022/03/26 05:25:59;;;;;;;4.15;1.88;;;;;;;12.53;49.71;102049.47;2082286;28;20049;-87
2022/03/26 05:27:22;;;;;;;2.85;1.67;;;;;;;12.69;49.14;102041.97;2080253;28;20092;-88
2022/03/26 05:28:44;;;;;;;4.70;1.50;;;;;;;12.86;48.91;102041.53;2081059;28;20479;-87
2022/03/26 05:30:10;;;;;;;8.50;1.70;;;;;;;13.02;48.62;102056.97;2073245;28;20104;-88
2022/03/26 05:31:34;;;;;;;4.82;1.85;;;;;;;13.19;48.59;102049.50;2076074;28;20052;-87
2022/03/26 05:32:56;;;;;;;4.78;2.67;;;;;;;13.31;48.42;102044.50;2067262;28;20047;-88
2022/03/26 05:34:17;;;;;;;6.18;3.25;;;;;;;13.32;48.11;102047.22;2075157;28;20077;-87
2022/03/26 05:35:40;;;;;;;7.22;3.33;;;;;;;13.37;48.38;102042.91;2081327;28;20053;-88
2022/03/26 05:37:01;;;;;;;5.30;2.38;;;;;;;13.56;48.34;102044.25;2079726;28;20128;-87
2022/03/26 05:38:24;;;;;;;6.18;2.22;;;;;;;13.76;47.65;102042.06;2073689;28;20036;-90
2022/03/26 05:39:47;;;;;;;5.07;2.13;;;;;;;13.98;46.97;102040.81;2078590;28;20061;-88
2022/03/26 05:41:10;;;;;;;4.70;1.83;;;;;;;14.16;46.58;102043.84;2075110;28;20042;-87
2022/03/26 05:42:31;;;;;;;5.40;2.15;;;;;;;14.33;46.54;102042.44;2071028;28;20046;-88
2022/03/26 05:43:55;;;;;;;9.60;5.63;;;;;;;14.50;46.49;102043.72;2081801;28;20077;-88
2022/03/26 05:45:18;;;;;;;8.73;5.30;;;;;;;14.63;45.85;102047.53;2075313;28;20050;-87
2022/03/26 05:46:40;;;;;;;5.78;3.20;;;;;;;14.62;45.86;102046.63;2081168;28;20489;-87
2022/03/26 05:48:05;;;;;;;7.45;3.92;;;;;;;14.61;45.57;102043.94;2083527;28;20150;-87
2022/03/26 05:49:26;;;;;;;6.75;2.97;;;;;;;14.67;45.86;102038.75;2071616;28;20061;-87
2022/03/26 05:50:49;;;;;;;6.03;3.97;;;;;;;14.89;45.74;102037.38;2070244;28;20050;-88
2022/03/26 05:52:12;;;;;;;6.22;3.08;;;;;;;15.15;45.57;102039.66;2086398;28;20046;-88
2022/03/26 05:53:35;;;;;;;4.97;2.63;;;;;;;15.34;44.96;102047.94;2066335;28;20077;-88
2022/03/26 05:54:59;;;;;;;4.32;2.55;;;;;;;15.44;45.01;102049.88;2078424;28;20056;-87
2022/03/26 05:56:22;;;;;;;5.88;1.98;;;;;;;15.61;44.73;102048.41;2084077;28;20065;-89
2022/03/26 05:57:45;;;;;;;4.03;1.70;;;;;;;15.83;44.17;102049.63;2081501;28;20045;-87
2022/03/26 05:59:10;;;;;;;3.55;1.90;;;;;;;16.00;43.55;102057.88;2080530;28;20134;-86
2022/03/26 06:00:33;;;;;;;3.95;1.70;;;;;;;16.17;43.67;102059.88;2064503;28;20050;-88
2022/03/26 06:01:55;;;;;;;6.18;2.92;;;;;;;16.38;43.38;102069.94;2061956;28;20046;-88
2022/03/26 06:03:19;;;;;;;5.40;2.97;;;;;;;16.49;42.90;102070.97;2078366;28;20057;-88
2022/03/26 06:04:42;;;;;;;6.18;2.90;;;;;;;16.54;42.87;102077.22;2061141;28;20050;-87
2022/03/26 06:06:04;;;;;;;6.30;3.10;;;;;;;16.65;42.79;102072.97;2078327;28;20050;-89
2022/03/26 06:07:26;;;;;;;11.15;4.43;;;;;;;16.82;42.67;102070.50;2082731;28;20084;-88
2022/03/26 06:08:50;;;;;;;8.35;3.67;;;;;;;17.09;41.84;102072.56;2075871;28;20052;-88
2022/03/26 06:10:17;;;;;;;10.27;4.20;;;;;;;17.36;41.43;102078.16;2067035;28;20050;-88
2022/03/26 06:11:38;;;;;;;6.43;3.50;;;;;;;17.54;41.48;102078.31;2079730;28;20124;-88
2022/03/26 06:13:02;;;;;;;6.00;2.63;;;;;;;17.77;41.57;102072.28;2079726;28;20041;-89
2022/03/26 06:14:24;;;;;;;9.20;2.80;;;;;;;17.99;41.16;102068.88;2056557;28;20053;-88
2022/03/26 06:15:47;;;;;;;5.82;2.55;;;;;;;18.16;40.54;102069.88;2078938;28;20048;-88
2022/03/26 06:17:10;;;;;;;8.07;3.30;;;;;;;18.31;40.37;102072.59;2080214;28;20413;-88
2022/03/26 06:18:33;;;;;;;10.70;4.00;;;;;;;18.47;39.92;102072.69;2075500;28;20050;-88
2022/03/26 06:19:55;;;;;;;7.85;4.07;;;;;;;18.57;40.12;102066.53;2078660;28;20088;-88
2022/03/26 06:21:18;;;;;;;6.68;4.28;;;;;;;18.69;40.08;102072.81;2080413;28;20061;-88
2022/03/26 06:22:41;;;;;;;8.40;4.43;;;;;;;18.84;40.10;102082.66;2080881;28;20106;-88
2022/03/26 06:24:05;;;;;;;9.98;4.57;;;;;;;19.02;40.11;102088.06;2074924;28;20144;-88
2022/03/26 06:25:32;;;;;;;10.23;4.53;;;;;;;19.23;39.77;102084.50;2058593;28;20066;-89
2022/03/26 06:26:57;;;;;;;7.10;3.92;;;;;;;19.41;39.53;102081.88;2070641;28;20109;-89
2022/03/26 06:28:20;;;;;;;7.28;4.28;;;;;;;19.58;39.24;102089.03;2067382;28;20082;-89
2022/03/26 06:29:43;;;;;;;8.80;3.90;;;;;;;19.67;38.97;102083.69;2080643;28;20045;-88
2022/03/26 06:31:08;;;;;;;7.68;3.92;;;;;;;19.71;38.91;102091.72;2072709;28;20088;-89